sensor_id;sensor_type;location;lat;lon;timestamp;pressure;altitude;pressure_sealevel;temperature;humidity
39341;BME280;25059;52.132;21.062;2024-03-02T06:35:59;100094.25;;;6.27;100.00
39341;BME280;25059;52.132;21.062;2024-03-02T06:38:47;100097.44;;;6.38;100.00
39341;BME280;25059;52.132;21.062;2024-03-02T06:41:32;100076.69;;;6.33;100.00
39341;BME280;25059;52.132;21.062;2024-03-02T06:44:17;100082.44;;;6.46;100.00
39341;BME280;25059;52.132;21.062;2024-03-02T06:47:27;100068.50;;;6.47;100.00
39341;BME280;25059;52.132;21.062;2024-03-02T06:50:11;100075.22;;;6.56;100.00
39341;BME280;25059;52.132;21.062;2024-03-02T06:52:56;100087.66;;;6.78;100.00
39341;BME280;25059;52.132;21.062;2024-03-02T06:55:41;100089.38;;;6.79;100.00
39341;BME280;25059;52.132;21.062;2024-03-02T06:58:26;100080.25;;;6.94;100.00
39341;BME280;25059;52.132;21.062;2024-03-02T07:01:10;100082.53;;;7.05;100.00
39341;BME280;25059;52.132;21.062;2024-03-02T07:03:55;100081.56;;;7.09;100.00
39341;BME280;25059;52.132;21.062;2024-03-02T07:06:39;100056.69;;;6.96;100.00
39341;BME280;25059;52.132;21.062;2024-03-02T07:09:24;100085.56;;;7.21;100.00
39341;BME280;25059;52.132;21.062;2024-03-02T07:12:08;100067.34;;;7.18;100.00
39341;BME280;25059;52.132;21.062;2024-03-02T07:14:53;100075.75;;;7.29;100.00
39341;BME280;25059;52.132;21.062;2024-03-02T07:17:56;100086.25;;;7.27;100.00
39341;BME280;25059;52.132;21.062;2024-03-02T07:20:40;100070.75;;;7.21;100.00
39341;BME280;25059;52.132;21.062;2024-03-02T07:23:25;100083.59;;;7.29;100.00
39341;BME280;25059;52.132;21.062;2024-03-02T07:26:11;100084.41;;;7.31;100.00
39341;BME280;25059;52.132;21.062;2024-03-02T07:28:56;100080.13;;;7.28;100.00
39341;BME280;25059;52.132;21.062;2024-03-02T07:31:40;100089.31;;;7.41;100.00
39341;BME280;25059;52.132;21.062;2024-03-02T07:34:25;100086.84;;;7.65;100.00
39341;BME280;25059;52.132;21.062;2024-03-02T07:37:10;100085.63;;;7.75;100.00
39341;BME280;25059;52.132;21.062;2024-03-02T07:39:55;100080.47;;;7.73;100.00
39341;BME280;25059;52.132;21.062;2024-03-02T07:42:41;100076.84;;;7.77;100.00
39341;BME280;25059;52.132;21.062;2024-03-02T07:45:26;100079.16;;;7.87;100.00
39341;BME280;25059;52.132;21.062;2024-03-02T07:48:11;100085.75;;;7.98;100.00
39341;BME280;25059;52.132;21.062;2024-03-02T07:50:56;100100.75;;;8.20;100.00
39341;BME280;25059;52.132;21.062;2024-03-02T07:53:40;100101.38;;;8.28;100.00
39341;BME280;25059;52.132;21.062;2024-03-02T07:56:26;100111.88;;;8.26;100.00
39341;BME280;25059;52.132;21.062;2024-03-02T07:59:10;100106.75;;;8.23;100.00
39341;BME280;25059;52.132;21.062;2024-03-02T08:01:55;100093.63;;;7.98;100.00
39341;BME280;25059;52.132;21.062;2024-03-02T08:04:40;100116.88;;;8.07;100.00
39341;BME280;25059;52.132;21.062;2024-03-02T08:07:25;100116.97;;;8.04;100.00
39341;BME280;25059;52.132;21.062;2024-03-02T08:10:09;100114.75;;;8.19;100.00
39341;BME280;25059;52.132;21.062;2024-03-02T08:12:54;100085.84;;;8.22;100.00
39341;BME280;25059;52.132;21.062;2024-03-02T08:15:39;100107.78;;;8.46;100.00
39341;BME280;25059;52.132;21.062;2024-03-02T08:18:24;100109.22;;;8.54;100.00
39341;BME280;25059;52.132;21.062;2024-03-02T08:21:08;100106.59;;;8.54;100.00
39341;BME280;25059;52.132;21.062;2024-03-02T08:23:53;100096.00;;;8.57;100.00
39341;BME280;25059;52.132;21.062;2024-03-02T08:26:38;100107.25;;;8.61;100.00
39341;BME280;25059;52.132;21.062;2024-03-02T08:29:24;100108.09;;;8.61;100.00
39341;BME280;25059;52.132;21.062;2024-03-02T08:32:08;100100.19;;;8.38;100.00
39341;BME280;25059;52.132;21.062;2024-03-02T08:34:53;100104.88;;;8.27;100.00
39341;BME280;25059;52.132;21.062;2024-03-02T08:37:39;100103.19;;;8.26;100.00
39341;BME280;25059;52.132;21.062;2024-03-02T08:40:29;100094.63;;;8.21;100.00
39341;BME280;25059;52.132;21.062;2024-03-02T08:43:13;100127.38;;;8.34;100.00
39341;BME280;25059;52.132;21.062;2024-03-02T08:45:58;100126.47;;;8.35;100.00
39341;BME280;25059;52.132;21.062;2024-03-02T08:48:43;100109.97;;;8.31;100.00
39341;BME280;25059;52.132;21.062;2024-03-02T08:51:28;100095.97;;;8.32;100.00
39341;BME280;25059;52.132;21.062;2024-03-02T08:54:13;100118.75;;;8.57;100.00
39341;BME280;25059;52.132;21.062;2024-03-02T08:56:58;100116.88;;;8.60;100.00
39341;BME280;25059;52.132;21.062;2024-03-02T08:59:42;100126.06;;;8.72;100.00
39341;BME280;25059;52.132;21.062;2024-03-02T09:02:28;100108.78;;;8.66;100.00
39341;BME280;25059;52.132;21.062;2024-03-02T09:05:12;100128.63;;;8.73;100.00
39341;BME280;25059;52.132;21.062;2024-03-02T09:07:57;100104.69;;;8.59;100.00
39341;BME280;25059;52.132;21.062;2024-03-02T09:10:42;100117.19;;;8.76;100.00
39341;BME280;25059;52.132;21.062;2024-03-02T09:13:28;100130.03;;;8.84;100.00
39341;BME280;25059;52.132;21.062;2024-03-02T09:16:13;100123.03;;;8.84;100.00
39341;BME280;25059;52.132;21.062;2024-03-02T09:18:58;100112.97;;;8.72;100.00
39341;BME280;25059;52.132;21.062;2024-03-02T09:21:42;100123.06;;;8.83;100.00
39341;BME280;25059;52.132;21.062;2024-03-02T09:24:28;100132.47;;;8.88;100.00
39341;BME280;25059;52.132;21.062;2024-03-02T09:27:12;100120.41;;;8.84;100.00
39341;BME280;25059;52.132;21.062;2024-03-02T09:29:57;100126.28;;;8.91;100.00
39341;BME280;25059;52.132;21.062;2024-03-02T09:32:41;100129.38;;;9.02;100.00
39341;BME280;25059;52.132;21.062;2024-03-02T09:35:26;100117.69;;;9.11;100.00
39341;BME280;25059;52.132;21.062;2024-03-02T09:38:14;100121.91;;;9.38;100.00
39341;BME280;25059;52.132;21.062;2024-03-02T09:41:00;100107.66;;;9.45;100.00
39341;BME280;25059;52.132;21.062;2024-03-02T09:43:45;100091.44;;;9.57;100.00
39341;BME280;25059;52.132;21.062;2024-03-02T09:46:30;100122.56;;;9.66;100.00
39341;BME280;25059;52.132;21.062;2024-03-02T09:49:14;100115.19;;;9.76;100.00
39341;BME280;25059;52.132;21.062;2024-03-02T09:52:00;100120.63;;;9.93;100.00
39341;BME280;25059;52.132;21.062;2024-03-02T09:54:47;100110.91;;;9.95;100.00
39341;BME280;25059;52.132;21.062;2024-03-02T09:57:32;100097.28;;;10.08;100.00
39341;BME280;25059;52.132;21.062;2024-03-02T10:00:17;100116.81;;;10.44;100.00
39341;BME280;25059;52.132;21.062;2024-03-02T10:03:02;100117.47;;;10.70;100.00
39341;BME280;25059;52.132;21.062;2024-03-02T10:05:47;100107.78;;;10.90;100.00
39341;BME280;25059;52.132;21.062;2024-03-02T10:08:47;100090.03;;;10.95;100.00
39341;BME280;25059;52.132;21.062;2024-03-02T10:11:34;100109.63;;;10.88;100.00
39341;BME280;25059;52.132;21.062;2024-03-02T10:14:21;100081.06;;;10.60;100.00
39341;BME280;25059;52.132;21.062;2024-03-02T10:17:07;100101.22;;;10.80;100.00
39341;BME280;25059;52.132;21.062;2024-03-02T10:19:52;100088.41;;;10.73;100.00
39341;BME280;25059;52.132;21.062;2024-03-02T10:22:37;100087.84;;;11.05;100.00
39341;BME280;25059;52.132;21.062;2024-03-02T10:25:36;100101.09;;;11.22;100.00
39341;BME280;25059;52.132;21.062;2024-03-02T10:28:21;100091.34;;;11.24;100.00
39341;BME280;25059;52.132;21.062;2024-03-02T10:31:05;100083.59;;;11.21;100.00
39341;BME280;25059;52.132;21.062;2024-03-02T10:33:50;100075.34;;;11.48;100.00
39341;BME280;25059;52.132;21.062;2024-03-02T10:36:35;100083.00;;;11.90;100.00
39341;BME280;25059;52.132;21.062;2024-03-02T10:39:20;100072.66;;;12.21;100.00
39341;BME280;25059;52.132;21.062;2024-03-02T10:42:06;100084.72;;;12.60;100.00
39341;BME280;25059;52.132;21.062;2024-03-02T10:44:54;100060.69;;;12.66;100.00
39341;BME280;25059;52.132;21.062;2024-03-02T10:47:38;100076.22;;;12.88;100.00
39341;BME280;25059;52.132;21.062;2024-03-02T10:50:24;100069.81;;;12.76;100.00
39341;BME280;25059;52.132;21.062;2024-03-02T10:53:09;100073.88;;;13.16;100.00
39341;BME280;25059;52.132;21.062;2024-03-02T10:55:58;100078.22;;;13.17;100.00
39341;BME280;25059;52.132;21.062;2024-03-02T10:58:47;100081.53;;;12.71;100.00
39341;BME280;25059;52.132;21.062;2024-03-02T11:01:38;100070.94;;;12.55;100.00
39341;BME280;25059;52.132;21.062;2024-03-02T11:04:27;100077.53;;;12.64;100.00
39341;BME280;25059;52.132;21.062;2024-03-02T11:07:13;100040.28;;;12.70;100.00
39341;BME280;25059;52.132;21.062;2024-03-02T11:09:59;100069.56;;;12.81;100.00
39341;BME280;25059;52.132;21.062;2024-03-02T11:13:02;100064.78;;;12.72;100.00
39341;BME280;25059;52.132;21.062;2024-03-02T11:15:53;100064.00;;;12.70;100.00
39341;BME280;25059;52.132;21.062;2024-03-02T11:18:40;100070.09;;;12.54;100.00
39341;BME280;25059;52.132;21.062;2024-03-02T11:21:26;100057.47;;;12.77;100.00
39341;BME280;25059;52.132;21.062;2024-03-02T11:27:12;100047.75;;;13.10;100.00
39341;BME280;25059;52.132;21.062;2024-03-02T11:29:57;100059.16;;;13.44;100.00
39341;BME280;25059;52.132;21.062;2024-03-02T11:32:41;100059.22;;;13.42;100.00
39341;BME280;25059;52.132;21.062;2024-03-02T11:35:26;100044.31;;;13.25;100.00
39341;BME280;25059;52.132;21.062;2024-03-02T11:38:13;100038.13;;;13.09;100.00
39341;BME280;25059;52.132;21.062;2024-03-02T11:41:01;100033.06;;;13.22;100.00
39341;BME280;25059;52.132;21.062;2024-03-02T11:43:47;100030.75;;;13.79;100.00
39341;BME280;25059;52.132;21.062;2024-03-02T11:46:33;100008.63;;;14.26;100.00
39341;BME280;25059;52.132;21.062;2024-03-02T11:49:44;100022.50;;;15.02;100.00
39341;BME280;25059;52.132;21.062;2024-03-02T11:52:29;100014.56;;;15.43;100.00
39341;BME280;25059;52.132;21.062;2024-03-02T11:55:15;100014.88;;;15.79;100.00
39341;BME280;25059;52.132;21.062;2024-03-02T11:58:04;100014.38;;;16.00;100.00
39341;BME280;25059;52.132;21.062;2024-03-02T12:00:51;100023.34;;;16.24;100.00
39341;BME280;25059;52.132;21.062;2024-03-02T12:03:35;100014.06;;;15.92;100.00
39341;BME280;25059;52.132;21.062;2024-03-02T12:06:21;100030.97;;;15.21;100.00
39341;BME280;25059;52.132;21.062;2024-03-02T12:09:06;100034.16;;;15.40;100.00
39341;BME280;25059;52.132;21.062;2024-03-02T12:12:01;100037.38;;;15.60;100.00
39341;BME280;25059;52.132;21.062;2024-03-02T12:14:51;100021.19;;;16.04;100.00
39341;BME280;25059;52.132;21.062;2024-03-02T12:17:39;100029.63;;;15.83;100.00
39341;BME280;25059;52.132;21.062;2024-03-02T12:20:25;100034.34;;;15.37;100.00
39341;BME280;25059;52.132;21.062;2024-03-02T12:23:10;100033.53;;;15.23;100.00
39341;BME280;25059;52.132;21.062;2024-03-02T12:25:54;100039.41;;;15.28;100.00
39341;BME280;25059;52.132;21.062;2024-03-02T12:28:39;100027.97;;;14.99;100.00
39341;BME280;25059;52.132;21.062;2024-03-02T12:31:24;100043.47;;;14.62;100.00
39341;BME280;25059;52.132;21.062;2024-03-02T12:34:13;100019.00;;;14.59;100.00
39341;BME280;25059;52.132;21.062;2024-03-02T12:37:01;100030.81;;;14.67;100.00
39341;BME280;25059;52.132;21.062;2024-03-02T12:39:46;100039.22;;;14.74;100.00
39341;BME280;25059;52.132;21.062;2024-03-02T12:42:30;100024.78;;;14.94;100.00
39341;BME280;25059;52.132;21.062;2024-03-02T12:45:15;100036.97;;;14.96;100.00
39341;BME280;25059;52.132;21.062;2024-03-02T12:48:00;100033.25;;;14.56;100.00
39341;BME280;25059;52.132;21.062;2024-03-02T12:50:46;100029.28;;;14.19;100.00
39341;BME280;25059;52.132;21.062;2024-03-02T12:53:31;100043.44;;;14.18;100.00
39341;BME280;25059;52.132;21.062;2024-03-02T12:56:15;100035.78;;;14.13;100.00
39341;BME280;25059;52.132;21.062;2024-03-02T12:59:00;100038.69;;;14.39;100.00
39341;BME280;25059;52.132;21.062;2024-03-02T13:02:19;100040.81;;;14.62;100.00
